createdAt,value
2024-04-12T00:02:16.436Z,11.1480
2024-04-12T00:12:32.800Z,11.0880
2024-04-12T00:22:49.660Z,11.0358
2024-04-12T00:33:06.573Z,10.9804
2024-04-12T00:43:23.356Z,10.9304
2024-04-12T00:53:39.920Z,10.8762
2024-04-12T01:03:56.676Z,10.8182
2024-04-12T01:14:13.545Z,10.7769
2024-04-12T01:24:31.172Z,10.7193
2024-04-12T01:34:48.106Z,10.6669
2024-04-12T01:45:04.853Z,10.6216
2024-04-12T01:55:22.382Z,10.5693
2024-04-12T02:05:39.600Z,10.5182
2024-04-12T02:15:56.353Z,10.4764
2024-04-12T02:26:12.964Z,10.4249
2024-04-12T02:36:29.548Z,10.3800
2024-04-12T02:46:46.536Z,10.3300
2024-04-12T02:57:04.297Z,10.2884
2024-04-12T03:07:21.828Z,10.2391
2024-04-12T03:17:39.019Z,10.1967
2024-04-12T03:27:56.250Z,10.1518
2024-04-12T03:38:13.060Z,10.1064
2024-04-12T03:48:29.939Z,10.0678
2024-04-12T03:58:46.322Z,10.0162
2024-04-12T04:09:02.297Z,9.9696
2024-04-12T04:19:19.101Z,9.9284
2024-04-12T04:29:35.210Z,9.8884
2024-04-12T04:39:51.207Z,9.8451
2024-04-12T04:50:07.218Z,9.7993
2024-04-12T05:00:23.212Z,9.7593
2024-04-12T05:10:39.356Z,9.7222
2024-04-12T05:20:55.523Z,9.6816
2024-04-12T05:31:11.966Z,9.6476
2024-04-12T05:41:27.834Z,9.6184
2024-04-12T05:51:43.412Z,9.5953
2024-04-12T06:01:59.393Z,9.5738
2024-04-12T06:12:15.082Z,9.5633
2024-04-12T06:22:29.398Z,9.5684
2024-04-12T06:32:45.358Z,9.5789
2024-04-12T06:53:16.839Z,9.6442
2024-04-12T07:03:32.542Z,9.6853
2024-04-12T07:13:48.304Z,9.7387
2024-04-12T07:24:04.441Z,9.8138
2024-04-12T07:34:20.519Z,9.9162
2024-04-12T07:44:36.937Z,10.0558
2024-04-12T07:54:53.070Z,10.2142
2024-04-12T08:05:09.441Z,10.3884
2024-04-12T08:15:25.619Z,10.5671
2024-04-12T08:25:41.910Z,10.7462
2024-04-12T08:35:57.979Z,10.9433
2024-04-12T08:46:14.071Z,11.1333
2024-04-12T08:56:30.072Z,11.3318
2024-04-12T09:06:47.222Z,11.5647
2024-04-12T09:17:03.952Z,11.8033
2024-04-12T09:27:20.806Z,12.0493
2024-04-12T09:37:38.072Z,12.2944
2024-04-12T09:47:55.319Z,12.5469
2024-04-12T09:58:12.813Z,12.8027
2024-04-12T10:08:29.906Z,13.0591
2024-04-12T10:18:47.286Z,13.3153
2024-04-12T10:29:04.845Z,13.5671
2024-04-12T10:39:22.267Z,13.8202
2024-04-12T10:49:39.853Z,14.0702
2024-04-12T10:59:57.297Z,14.3196
2024-04-12T11:10:14.703Z,14.5691
2024-04-12T11:20:32.276Z,14.8067
2024-04-12T11:30:50.446Z,15.0400
2024-04-12T11:41:08.014Z,15.2631
2024-04-12T11:51:20.189Z,15.4805
2024-04-12T12:01:40.653Z,15.6900
2024-04-12T12:11:58.149Z,15.8791
2024-04-12T12:22:15.909Z,16.0613
2024-04-12T12:32:33.541Z,16.2300
2024-04-12T12:42:51.426Z,16.3787
2024-04-12T12:53:08.888Z,16.5131
2024-04-12T13:03:26.419Z,16.6149
2024-04-12T13:13:43.874Z,16.6971
2024-04-12T13:24:01.491Z,16.7711
2024-04-12T13:34:19.162Z,16.8496
2024-04-12T13:44:37.484Z,16.8993
2024-04-12T13:54:56.517Z,16.9467
2024-04-12T14:05:14.099Z,16.9729
2024-04-12T14:15:31.460Z,16.9956
2024-04-12T14:25:49.072Z,16.9849
2024-04-12T14:36:06.644Z,16.9436
2024-04-12T14:46:24.226Z,16.8929
2024-04-12T14:56:43.824Z,16.8451
2024-04-12T15:06:49.550Z,16.7998
2024-04-12T15:17:07.199Z,16.7476
2024-04-12T15:27:24.651Z,16.6900
2024-04-12T15:37:42.169Z,16.6080
2024-04-12T15:47:59.672Z,16.5224
2024-04-12T15:58:17.017Z,16.4384
2024-04-12T16:08:34.372Z,16.3553
2024-04-12T16:18:51.997Z,16.2742
2024-04-12T16:29:10.082Z,16.1951
2024-04-12T16:39:27.531Z,16.1253
2024-04-12T16:49:45.054Z,16.0449
2024-04-12T17:00:02.902Z,15.9693
2024-04-12T17:10:20.898Z,15.8962
2024-04-12T17:20:38.783Z,15.8127
2024-04-12T17:30:56.191Z,15.7320
2024-04-12T17:41:13.555Z,15.6444
2024-04-12T17:51:31.083Z,15.5440
2024-04-12T18:01:48.676Z,15.4511
2024-04-12T18:12:06.164Z,15.3504
2024-04-12T18:22:23.813Z,15.2396
2024-04-12T18:32:41.532Z,15.1251
2024-04-12T18:42:59.098Z,15.0100
2024-04-12T18:53:16.562Z,14.9022
2024-04-12T19:03:34.324Z,14.7900
2024-04-12T19:13:51.849Z,14.6844
2024-04-12T19:24:09.331Z,14.5798
2024-04-12T19:34:26.860Z,14.4844
2024-04-12T19:44:44.765Z,14.3871
2024-04-12T19:55:02.225Z,14.2918
2024-04-12T20:05:19.911Z,14.2002
2024-04-12T20:15:37.650Z,14.1109
2024-04-12T20:25:46.656Z,14.0218
2024-04-12T20:36:04.386Z,13.9384
2024-04-12T20:46:21.996Z,13.8484
2024-04-12T20:56:39.856Z,13.7676
2024-04-12T21:06:57.609Z,13.6909
2024-04-12T21:17:15.776Z,13.6062
2024-04-12T21:27:34.252Z,13.5331
2024-04-12T21:37:52.661Z,13.4511
2024-04-12T21:48:10.984Z,13.3780
2024-04-12T21:58:28.613Z,13.2996
2024-04-12T22:08:46.143Z,13.2238
2024-04-12T22:19:03.780Z,13.1631
2024-04-12T22:29:21.592Z,13.1029
2024-04-12T22:39:39.513Z,13.0427
2024-04-12T22:49:57.292Z,12.9869
2024-04-12T23:00:15.567Z,12.9322
2024-04-12T23:10:33.649Z,12.8764
2024-04-12T23:20:51.470Z,12.8158
2024-04-12T23:31:09.590Z,12.7567
2024-04-12T23:41:27.135Z,12.6984
2024-04-12T23:51:44.743Z,12.6396
